• Join FlightAware (Why Join?)
  • Login
  • US Flag 
05:20AM EDT


 

Airport Tracker/Info


-or-


 

Live Flight TrackerFlight Track Log ✈ UAL6118 ✈ 28-Apr-2013 ✈ KORD - KCHS

Flight Track Log - Related Links

Times and Time Zones

All times are in EDT time to prevent confusion due to time zone crossing. See the UAL6118 flight status page for this flight to view local times or setup timezone preferences in your user account.

Time Position Orientation Groundspeed Altitude Reporting Facility
EDT Latitude Longitude Course Direction KTS MPH feet Rate Location/Type
10:08PM 41.9000 -87.9167 155° Southeast 186 214 3,200  Level Chicago TRACON
10:09PM 41.8144 -87.8964 170° South 225 259 5,600 1,920 Climbing Chicago Center
10:10PM 41.7406 -87.8344 148° Southeast 258 297 8,300 2,160 Climbing Chicago Center
10:11PM 41.6753 -87.7803 148° Southeast 270 311 10,100 1,680 Climbing Chicago Center
10:12PM 41.6044 -87.7219 148° Southeast 293 337 11,800 1,740 Climbing Chicago Center
10:13PM 41.9413 -87.8818 155° Southeast  Level FlightAware Approximate
10:13PM 41.5306 -87.6597 148° Southeast 310 357 13,700  Level Chicago Center
10:14PM 41.4536 -87.5956 148° Southeast 320 368 14,700 900 Climbing Chicago Center
10:15PM 41.3583 -87.5622 165° South 352 405 15,600 840 Climbing Chicago Center
10:16PM 41.2550 -87.5431 172° South 368 423 16,500 960 Climbing Chicago Center
10:17PM 41.1483 -87.5200 171° South 381 438 17,600 1,020 Climbing Chicago Center
10:18PM 41.0411 -87.4911 169° South 390 449 18,700 1,020 Climbing Chicago Center
10:19PM 40.9314 -87.4608 168° South 399 459 19,800 1,020 Climbing Chicago Center
10:20PM 40.8211 -87.4311 168° South 405 466 20,800 1,080 Climbing Chicago Center
10:21PM 40.6861 -87.3967 169° South 411 473 22,100 1,080 Climbing Chicago Center
10:22PM 40.5731 -87.3656 168° South 414 476 23,100 960 Climbing Chicago Center
10:23PM 40.4586 -87.3358 169° South 419 482 24,100 1,020 Climbing Chicago Center
10:24PM 40.3600 -87.2500 146° Southeast 415 478 25,200 960 Climbing Chicago Center
10:25PM 40.2647 -87.1592 144° Southeast 420 483 26,100 1,020 Climbing Chicago Center
10:27PM 40.1703 -87.0714 145° Southeast 415 478 27,300 1,080 Climbing Chicago Center
10:27PM 40.1056 -87.0131 145° Southeast 413 475 28,000 1,020 Climbing Indianapolis Center
10:28PM 40.0128 -86.9269 145° Southeast 409 471 29,100 1,020 Climbing Indianapolis Center
10:29PM 39.9169 -86.8453 147° Southeast 410 472 30,100 1,080 Climbing Indianapolis Center
10:30PM 39.8267 -86.7233 134° Southeast 404 465 31,300 1,140 Climbing Indianapolis Center
10:31PM 39.7650 -86.6019 123° Southeast 401 461 32,400 1,020 Climbing Indianapolis Center
10:32PM 39.7039 -86.4811 123° Southeast 402 463 33,400 1,020 Climbing Indianapolis Center
10:33PM 39.6428 -86.3631 124° Southeast 400 460 34,500 780 Climbing Indianapolis Center
10:34PM 39.5833 -86.2450 123° Southeast 398 458 35,000 240 Climbing Indianapolis Center
10:35PM 39.5200 -86.1217 124° Southeast 408 470 35,000  Level Indianapolis Center
10:36PM 39.4531 -85.9914 124° Southeast 429 494 35,000  Level Indianapolis Center
10:37PM 39.3833 -85.8542 123° Southeast 449 517 35,000  Level Indianapolis Center
10:38PM 39.3181 -85.7108 120° Southeast 459 528 35,000  Level Indianapolis Center
10:39PM 39.2522 -85.5669 121° Southeast 463 533 35,000  Level Indianapolis Center
10:40PM 39.1864 -85.4225 120° Southeast 464 534 35,000  Level Indianapolis Center
10:41PM 39.1181 -85.2792 122° Southeast 466 536 35,000  Level Indianapolis Center
10:42PM 39.0517 -85.1353 121° Southeast 465 535 35,000  Level Indianapolis Center
10:43PM 38.9850 -84.9931 121° Southeast 464 534 35,000  Level Indianapolis Center
10:44PM 38.9069 -84.8256 121° Southeast 466 536 35,000  Level Indianapolis Center
10:45PM 38.8386 -84.6819 121° Southeast 467 537 35,000  Level Indianapolis Center
10:46PM 38.7708 -84.5386 121° Southeast 467 537 35,000  Level Indianapolis Center
10:48PM 38.7117 -84.4144 121° Southeast 471 542 35,000  Level Indianapolis Center
10:49PM 38.6347 -84.2536 121° Southeast 472 543 35,000  Level Indianapolis Center
10:50PM 38.5656 -84.1089 121° Southeast 476 548 35,000  Level Indianapolis Center
10:51PM 38.4958 -83.9656 122° Southeast 473 544 35,000  Level Indianapolis Center
10:52PM 38.4275 -83.8225 121° Southeast 472 543 35,000  Level Indianapolis Center
10:53PM 38.3600 -83.6836 122° Southeast 462 532 35,000  Level Indianapolis Center
10:54PM 38.2917 -83.5453 122° Southeast 460 529 35,000  Level Indianapolis Center
10:55PM 38.2231 -83.4056 122° Southeast 463 533 35,000  Level Indianapolis Center
10:56PM 38.1536 -83.2650 122° Southeast 467 537 35,000  Level Indianapolis Center
10:57PM 38.0833 -83.1247 122° Southeast 467 537 35,000  Level Indianapolis Center
10:58PM 38.0136 -82.9844 122° Southeast 469 540 35,000 -180 Level Indianapolis Center
10:59PM 37.9425 -82.8425 122° Southeast 474 545 34,700 -600 Descending Indianapolis Center
11:00PM 37.8736 -82.7056 122° Southeast 466 536 33,900 -840 Descending Indianapolis Center
11:01PM 37.8056 -82.5700 122° Southeast 456 525 33,100 -480 Descending Indianapolis Center
11:02PM 37.7358 -82.4322 123° Southeast 463 533 33,000 -60 Descending Indianapolis Center
11:03PM 37.6658 -82.2958 123° Southeast 462 532 33,000  Level Indianapolis Center
11:04PM 37.5950 -82.1578 123° Southeast 466 536 33,000  Level Indianapolis Center
11:05PM 37.5108 -81.9936 123° Southeast 475 547 33,000  Level Indianapolis Center
11:06PM 37.4386 -81.8533 123° Southeast 475 547 33,000  Level Indianapolis Center
11:07PM 37.3669 -81.7158 123° Southeast 471 542 33,000  Level Indianapolis Center
11:08PM 37.2972 -81.5794 123° Southeast 465 535 33,000  Level Indianapolis Center
11:09PM 37.2256 -81.4422 123° Southeast 466 536 33,000  Level Indianapolis Center
11:10PM 37.1519 -81.3036 124° Southeast 474 545 33,000  Level Indianapolis Center
11:11PM 37.0833 -81.1725 123° Southeast 474 545 33,000  Level Indianapolis Center
11:12PM 37.0117 -81.0392 124° Southeast 474 545 33,000  Level Indianapolis Center
11:13PM 36.9358 -80.9017 125° Southeast 474 545 33,000  Level Atlanta Center
11:14PM 36.8567 -80.7519 123° Southeast 474 545 33,000  Level Atlanta Center
11:15PM 36.7844 -80.6200 124° Southeast 474 545 33,000  Level Atlanta Center
11:17PM 36.6519 -80.3625 123° Southeast 455 524 33,000  Level Indianapolis Center
11:17PM 36.6319 -80.3311 128° Southeast 476 548 33,000  Level Washington Center
11:18PM 36.5519 -80.1867 125° Southeast 470 541 33,000  Level Washington Center
11:19PM 36.4797 -80.0506 123° Southeast 470 541 33,000  Level Washington Center
11:20PM 36.4075 -79.9175 124° Southeast 465 535 33,000  Level Washington Center
11:21PM 36.3264 -79.7969 130° Southeast 465 535 33,000 -240 Level Washington Center
11:22PM 36.2236 -79.7528 161° South 435 501 32,600 -540 Descending Washington Center
11:23PM 36.0931 -79.7228 169° South 421 484 32,000 -300 Descending Washington Center
11:24PM 35.9894 -79.6994 170° South 430 495 32,000  Level Washington Center
11:25PM 35.8633 -79.6697 169° South 424 488 32,000  Level Washington Center
11:26PM 35.7556 -79.6464 170° South 429 494 32,000  Level Washington Center
11:27PM 35.6311 -79.6222 171° South 421 484 32,000  Level Washington Center
11:28PM 35.5153 -79.5983 170° South 421 484 32,000 -240 Level Washington Center
11:29PM 35.3992 -79.5747 171° South 426 490 31,600 -780 Descending Washington Center
11:30PM 35.2831 -79.5511 171° South 426 490 30,500 -1,080 Descending Washington Center
11:31PM 35.1628 -79.5250 170° South 426 490 29,500 -780 Descending Washington Center
11:33PM 34.9061 -79.4703 170° South 428 493 28,000 -480 Descending Jacksonville Center
11:34PM 34.7886 -79.4447 170° South 428 493 28,000  Level Jacksonville Center
11:35PM 34.6669 -79.4192 170° South 433 498 28,000  Level Jacksonville Center
11:36PM 34.5450 -79.3914 169° South 440 506 28,000  Level Jacksonville Center
11:37PM 34.4089 -79.3717 173° South 450 518 28,000 -300 Level Jacksonville Center
11:38PM 34.2878 -79.3667 178° South 450 518 27,400 -1,080 Descending Jacksonville Center
11:39PM 34.2014 -79.4078 201° Southwest 421 484 25,900 -2,040 Descending Jacksonville Center
11:40PM 34.0736 -79.4681 201° Southwest 412 474 23,400 -2,280 Descending Jacksonville Center
11:41PM 33.9667 -79.5222 203° Southwest 419 482 21,400 -2,160 Descending Jacksonville Center
11:42PM 33.8639 -79.5761 204° Southwest 424 488 19,100 -2,280 Descending Jacksonville Center
11:43PM 33.7628 -79.6225 201° Southwest 405 466 16,900 -2,160 Descending Jacksonville Center
11:44PM 33.6719 -79.6658 202° Southwest 381 438 14,800 -2,100 Descending Jacksonville Center
11:45PM 33.5856 -79.7089 203° Southwest 357 411 12,800 -1,860 Descending Jacksonville Center
11:46PM 33.4969 -79.7519 202° Southwest 350 403 11,100 -960 Descending Jacksonville Center
11:47PM 33.4081 -79.7947 202° Southwest 350 403 10,900 -120 Descending Jacksonville Center
11:48PM 33.3236 -79.8350 202° Southwest 345 397 10,900 -300 Level Jacksonville Center
11:49PM 33.2453 -79.8750 203° Southwest 328 377 10,400 -1,140 Descending Jacksonville Center
11:50PM 33.1772 -79.9069 201° Southwest 295 339 8,700 -2,040 Descending Jacksonville Center
11:51PM 33.1111 -79.9389 202° Southwest 271 312 6,400 -2,100 Descending Jacksonville Center
11:52PM 33.0594 -79.9631 201° Southwest 253 291 4,500 -2,160 Descending Jacksonville Center
11:53PM 33.0036 -79.9897 202° Southwest 232 267 2,100 -1,620 Descending Jacksonville Center
11:54PM 32.9706 -80.0006 195° South 185 213 1,300 -600 Descending Jacksonville Center
11:55PM 32.9397 -80.0189 207° Southwest 144 166 900 -420 Descending Jacksonville Center